createdAt,value
2019-05-29T18:58:30.535Z,2.33
2019-05-29T19:01:00.686Z,2.27
2019-05-29T19:03:32.458Z,2.13
2019-05-29T19:06:01.933Z,1.70
2019-05-29T19:08:32.009Z,1.87
2019-05-29T19:11:02.290Z,2.13
2019-05-29T19:13:32.162Z,2.00
2019-05-29T19:16:02.435Z,1.97
2019-05-29T19:18:32.465Z,1.93
2019-05-29T19:21:03.523Z,2.83
2019-05-29T19:23:33.338Z,2.60
2019-05-29T19:26:03.293Z,2.57
2019-05-29T19:28:35.319Z,2.00
2019-05-29T19:31:05.744Z,2.27
2019-05-29T19:33:35.605Z,2.20
2019-05-29T19:36:05.703Z,2.30
2019-05-29T19:38:35.601Z,2.87
2019-05-29T19:41:05.685Z,2.60
2019-05-29T19:43:35.800Z,1.87
2019-05-29T19:46:06.268Z,1.57
2019-05-29T19:48:40.536Z,1.87
2019-05-29T19:51:10.433Z,2.27
2019-05-29T19:53:40.531Z,2.27
2019-05-29T19:56:10.464Z,1.67
2019-05-29T19:58:40.974Z,1.43
2019-05-29T20:01:30.085Z,1.53
2019-05-29T20:03:48.854Z,1.70
2019-05-29T20:06:35.375Z,2.17
2019-05-29T20:09:06.280Z,2.10
2019-05-29T20:11:45.127Z,1.47
2019-05-29T20:14:14.997Z,1.90
2019-05-29T20:16:44.863Z,1.70
2019-05-29T20:19:14.544Z,1.70
2019-05-29T20:21:44.377Z,1.53
2019-05-29T20:24:14.494Z,1.60
2019-05-29T20:26:44.951Z,1.57
2019-05-29T20:29:14.918Z,2.00
2019-05-29T20:31:46.210Z,5.10
2019-05-29T20:34:16.394Z,4.43
2019-05-29T20:36:46.240Z,2.90
2019-05-29T20:39:15.980Z,3.20
2019-05-29T20:41:45.889Z,2.87
2019-05-29T20:44:15.634Z,3.70
2019-05-29T20:46:45.522Z,4.30
2019-05-29T20:49:15.611Z,2.10
2019-05-29T20:51:45.293Z,2.57
2019-05-29T20:54:15.406Z,3.37
2019-05-29T20:56:45.235Z,3.00
2019-05-29T20:59:14.942Z,2.60
2019-05-29T21:01:47.578Z,2.70
2019-05-29T21:04:17.139Z,3.13
2019-05-29T21:06:47.133Z,3.30
2019-05-29T21:09:17.086Z,2.87
2019-05-29T21:11:49.239Z,2.87
2019-05-29T21:14:19.063Z,3.17
2019-05-29T21:16:48.837Z,3.50
2019-05-29T21:19:20.584Z,3.47
2019-05-29T21:21:50.361Z,3.43
2019-05-29T21:24:20.137Z,2.37
2019-05-29T21:26:50.266Z,3.00
2019-05-29T21:29:19.988Z,3.50
2019-05-29T21:31:49.817Z,2.87
2019-05-29T21:34:20.590Z,3.23
2019-05-29T21:36:50.401Z,3.00
2019-05-29T21:39:20.097Z,2.60
2019-05-29T21:41:50.290Z,2.90
2019-05-29T21:44:20.025Z,3.43
2019-05-29T21:46:49.924Z,3.03
2019-05-29T21:49:19.734Z,2.80
2019-05-29T21:51:49.675Z,3.00
2019-05-29T21:54:19.625Z,3.07
2019-05-29T21:56:49.417Z,2.43
2019-05-29T21:59:19.245Z,2.87
2019-05-29T22:01:49.025Z,3.43
2019-05-29T22:04:25.257Z,3.47
2019-05-29T22:07:40.977Z,2.90
2019-05-29T22:10:16.430Z,3.30
2019-05-29T22:12:47.296Z,2.63
2019-05-29T22:15:17.424Z,3.03
2019-05-29T22:17:47.168Z,2.20
2019-05-29T22:20:17.042Z,2.93
2019-05-29T22:22:46.781Z,3.47
2019-05-29T22:25:16.463Z,2.83
2019-05-29T22:27:46.196Z,3.27
2019-05-29T22:30:16.556Z,3.20
2019-05-29T22:32:46.460Z,3.70
2019-05-29T22:35:16.612Z,3.27
2019-05-29T22:37:46.561Z,3.90
2019-05-29T22:40:16.553Z,3.67
2019-05-29T22:42:46.467Z,2.83
2019-05-29T22:45:16.128Z,3.83
2019-05-29T22:47:46.042Z,4.60
2019-05-29T22:50:16.341Z,4.00
2019-05-29T22:52:46.061Z,3.43
2019-05-29T22:55:15.753Z,3.70
2019-05-29T22:57:45.457Z,4.57
2019-05-29T23:00:16.112Z,2.97
2019-05-29T23:02:46.050Z,2.90
2019-05-29T23:05:15.768Z,3.73
2019-05-29T23:07:45.486Z,4.00
2019-05-29T23:10:15.804Z,3.57
2019-05-29T23:12:45.776Z,3.80
2019-05-29T23:15:15.477Z,3.67
2019-05-29T23:17:45.586Z,3.53
2019-05-29T23:20:16.357Z,3.63
2019-05-29T23:22:46.120Z,3.47
2019-05-29T23:25:16.316Z,3.93
2019-05-29T23:27:46.134Z,3.77
2019-05-29T23:30:16.177Z,4.23
2019-05-29T23:32:45.857Z,3.67
2019-05-29T23:35:15.864Z,4.63
2019-05-29T23:37:45.715Z,3.93
2019-05-29T23:40:16.094Z,3.77
2019-05-29T23:42:45.813Z,3.80
2019-05-29T23:45:15.496Z,3.77
2019-05-29T23:47:45.201Z,4.00
2019-05-29T23:50:15.278Z,5.50
2019-05-29T23:52:45.268Z,5.50
2019-05-29T23:55:14.966Z,5.43
2019-05-29T23:57:44.864Z,4.57
